Island Viking — WDG5991 — position and weather

sailwx.info

Track history (hours):
 
Tides and Currents Weather Stations Pressure Air Temp Water Temp Dewpoint Dewpoint Depression Visibility Wind Speed Wind Dir Waves Ship Positions

Island Viking

Owner: Island Tug and Barge, Seattle, WA. More information available from US FCC via Universal Licensing System and Coast Guard Vessel Documentation Center.

Last reported at 2017-Oct-18 20:00 UTC. Time now 2017-Oct-18 20:20 UTC.
Position N 47°34' W 122°21'.

Length 35 m; draft 4 m.

Type: Towing. MMSI: 368637000.

Date/timePositionNaut miles runAvg speedWind from/ knotsBaromVisibWave heightAir tempDewpointWater temp
2017-Oct-18 20:00N 47°34' W 122°21'0 0.0
2017-Oct-18 19:30N 47°34' W 122°21'0 0.1
2017-Oct-18 19:00N 47°34' W 122°21'0 0.0
2017-Oct-18 18:29N 47°34' W 122°21'0 0.1
2017-Oct-18 18:00N 47°34' W 122°21'0 0.0
2017-Oct-18 17:26N 47°34' W 122°21'0 0.0
2017-Oct-18 16:45N 47°34' W 122°21'0 0.1
2017-Oct-18 16:11N 47°34' W 122°21'0 0.2
2017-Oct-18 15:57N 47°34' W 122°21'0 0.0
2017-Oct-18 15:29N 47°34' W 122°21'0 0.0
2017-Oct-18 14:00N 47°34' W 122°21'0 0.0
2017-Oct-18 13:30N 47°34' W 122°21'0 0.1
2017-Oct-18 13:00N 47°34' W 122°21'0 0.1
2017-Oct-18 12:30N 47°34' W 122°21'0 0.0
2017-Oct-18 12:00N 47°34' W 122°21'0 0.0
2017-Oct-18 11:30N 47°34' W 122°21'0 0.0
2017-Oct-18 11:00N 47°34' W 122°21'0 0.1
2017-Oct-18 10:30N 47°34' W 122°21'0 0.0
2017-Oct-18 10:00N 47°34' W 122°21'0 0.0
2017-Oct-18 09:30N 47°34' W 122°21'0 0.1
2017-Oct-18 09:00N 47°34' W 122°21'0 0.1
2017-Oct-18 08:30N 47°34' W 122°21'0 0.1
2017-Oct-18 08:00N 47°34' W 122°21'0 0.0
2017-Oct-18 07:30N 47°34' W 122°21'1 1.4
2017-Oct-18 07:00N 47°34' W 122°21'1 2.5
2017-Oct-18 06:30N 47°35' W 122°22'2 4.8
2017-Oct-18 06:00N 47°35' W 122°25'3 6.5
2017-Oct-18 05:30N 47°33' W 122°28'4 8.1
2017-Oct-18 05:00N 47°29' W 122°30'4 8.0
2017-Oct-18 04:30N 47°25' W 122°32'4 8.0
2017-Oct-18 04:00N 47°21' W 122°33'5 9.5
2017-Oct-18 03:30N 47°16' W 122°33'16 6.2
2017-Oct-18 00:55N 47°10' W 122°55'2 5.1
2017-Oct-18 00:30N 47°12' W 122°56'2 4.4
2017-Oct-18 00:00N 47°12' W 122°59'2 3.8
2017-Oct-17 23:30N 47°12' W 123°02'2 3.4
2017-Oct-17 23:00N 47°13' W 123°05'1 0.9
2017-Oct-17 22:21N 47°13' W 123°05'0 0.0
2017-Oct-17 21:58N 47°13' W 123°05'0 0.0
2017-Oct-17 21:30N 47°13' W 123°05'0 0.0
2017-Oct-17 21:00N 47°13' W 123°05'0 0.0
2017-Oct-17 20:28N 47°13' W 123°05'0 0.0
2017-Oct-17 19:59N 47°13' W 123°05'0 0.0
2017-Oct-17 19:30N 47°13' W 123°05'0 0.0
2017-Oct-17 19:00N 47°13' W 123°05'0 0.0
2017-Oct-17 18:30N 47°13' W 123°05'0 0.0
2017-Oct-17 18:00N 47°13' W 123°05'0 0.1
2017-Oct-17 17:29N 47°13' W 123°05'0 0.0
2017-Oct-17 17:00N 47°13' W 123°05'0 0.0
2017-Oct-17 16:30N 47°13' W 123°05'0 0.0
2017-Oct-17 16:00N 47°13' W 123°05'0 0.0
2017-Oct-17 15:27N 47°13' W 123°05'0 0.1
2017-Oct-17 15:00N 47°13' W 123°05'0 0.0
2017-Oct-17 14:30N 47°13' W 123°05'0 0.0
2017-Oct-17 13:59N 47°13' W 123°05'0 0.0
2017-Oct-17 13:24N 47°13' W 123°05'0 0.2
2017-Oct-17 12:58N 47°13' W 123°05'2 3.7
2017-Oct-17 12:30N 47°12' W 123°02'3 5.5
2017-Oct-17 12:00N 47°12' W 122°58'2 3.6
2017-Oct-17 11:29N 47°12' W 122°56'1 2.7
2017-Oct-17 11:00N 47°11' W 122°55'14 4.3
2017-Oct-17 07:45N 47°14' W 122°35'310.4
2017-Oct-17 07:29N 47°16' W 122°33'5 9.4
2017-Oct-17 07:00N 47°21' W 122°33'3 7.0
2017-Oct-17 06:30N 47°24' W 122°32'4 7.2
2017-Oct-17 06:00N 47°28' W 122°31'3 6.7
2017-Oct-17 05:30N 47°31' W 122°29'4 7.2
2017-Oct-17 05:00N 47°34' W 122°27'3 6.9
2017-Oct-17 04:30N 47°36' W 122°23'2 3.7
2017-Oct-17 04:00N 47°34' W 122°21'0 0.0
2017-Oct-17 03:30N 47°34' W 122°21'0 0.0
2017-Oct-17 03:00N 47°34' W 122°21'1 1.5
2017-Oct-17 02:30N 47°34' W 122°21'1 1.2
2017-Oct-17 02:00N 47°34' W 122°21'2 4.2
2017-Oct-17 01:30N 47°36' W 122°23'3 6.3
2017-Oct-17 01:01N 47°34' W 122°26'3 6.7
2017-Oct-17 00:31N 47°31' W 122°29'3 6.8
2017-Oct-17 00:01N 47°28' W 122°31'3 6.7
2017-Oct-16 23:30N 47°24' W 122°32'3 6.2
2017-Oct-16 23:01N 47°21' W 122°33'4 5.6
2017-Oct-16 22:23N 47°18' W 122°32'1 3.5
2017-Oct-16 22:01N 47°17' W 122°33'1 2.7
2017-Oct-16 21:28N 47°15' W 122°34'1 1.7
2017-Oct-16 20:59N 47°15' W 122°34'1 2.3
2017-Oct-16 20:30N 47°14' W 122°35'1 1.7
2017-Oct-16 19:58N 47°13' W 122°35'3 4.4
2017-Oct-16 19:10N 47°10' W 122°38'2 5.9
2017-Oct-16 18:50N 47°08' W 122°39'0 0.5
2017-Oct-16 18:31N 47°08' W 122°39'0 0.0
2017-Oct-16 17:52N 47°08' W 122°39'0 0.0
2017-Oct-16 17:28N 47°08' W 122°39'0 0.0
2017-Oct-16 16:59N 47°08' W 122°39'5 0.7
2017-Oct-16 10:07N 47°13' W 122°36'1 7.5
2017-Oct-16 09:58N 47°14' W 122°35'4 7.8
2017-Oct-16 09:31N 47°17' W 122°33'4 7.8
2017-Oct-16 09:00N 47°21' W 122°32'3 7.0
2017-Oct-16 08:31N 47°24' W 122°32'4 7.1
2017-Oct-16 08:01N 47°28' W 122°31'3 6.9
2017-Oct-16 07:30N 47°31' W 122°29'4 7.5
2017-Oct-16 07:01N 47°34' W 122°26'3 6.0
2017-Oct-16 06:31N 47°36' W 122°22'2 4.3
2017-Oct-16 06:00N 47°34' W 122°21'0 0.6
2017-Oct-16 05:31N 47°34' W 122°21'0 0.5
2017-Oct-16 04:58N 47°34' W 122°21'0 0.2
2017-Oct-16 04:20N 47°34' W 122°21'0 0.1
2017-Oct-16 03:59N 47°34' W 122°21'0 0.0
2017-Oct-16 03:22N 47°34' W 122°21'0 0.0
2017-Oct-16 03:00N 47°34' W 122°21'0 0.0
2017-Oct-16 02:25N 47°34' W 122°21'0 0.0
2017-Oct-16 02:00N 47°34' W 122°21'1 1.1
2017-Oct-16 01:30N 47°34' W 122°21'1 1.4
2017-Oct-16 01:00N 47°35' W 122°22'2 4.3
2017-Oct-16 00:31N 47°36' W 122°24'3 6.1
2017-Oct-16 00:00N 47°33' W 122°27'3 6.3
2017-Oct-15 23:30N 47°30' W 122°29'3 6.3
2017-Oct-15 23:01N 47°28' W 122°31'10 5.5
2017-Oct-15 21:09N 47°17' W 122°32'0 2.7
2017-Oct-15 21:01N 47°17' W 122°32'1 2.5
2017-Oct-15 20:31N 47°16' W 122°33'2 2.3
2017-Oct-15 19:52N 47°15' W 122°34'1 2.6
2017-Oct-15 19:30N 47°14' W 122°35'5 4.6
2017-Oct-15 18:29N 47°10' W 122°39'2 2.6
2017-Oct-15 17:50N 47°08' W 122°39'0 0.0
2017-Oct-15 17:28N 47°08' W 122°39'0 0.0
2017-Oct-15 15:33N 47°08' W 122°39'0 0.0
2017-Oct-15 15:11N 47°08' W 122°39'0 0.1
2017-Oct-15 14:55N 47°08' W 122°39'8 4.0
2017-Oct-15 12:50N 47°16' W 122°34'1 2.9
2017-Oct-15 12:28N 47°16' W 122°33'1 1.8
2017-Oct-15 12:01N 47°17' W 122°32'2 2.9
2017-Oct-15 11:28N 47°19' W 122°33'1 2.8
2017-Oct-15 11:01N 47°20' W 122°33'2 4.1
2017-Oct-15 10:30N 47°22' W 122°32'2 3.7
2017-Oct-15 10:01N 47°24' W 122°32'2 3.4
2017-Oct-15 09:30N 47°25' W 122°32'2 3.7
2017-Oct-15 09:01N 47°27' W 122°31'2 3.8
2017-Oct-15 08:30N 47°29' W 122°30'2 3.6
2017-Oct-15 08:01N 47°31' W 122°29'2 4.0
2017-Oct-15 07:31N 47°32' W 122°28'2 4.3
2017-Oct-15 07:01N 47°34' W 122°26'2 4.9
2017-Oct-15 06:30N 47°36' W 122°24'2 4.1
2017-Oct-15 06:01N 47°35' W 122°22'0 0.1
2017-Oct-15 04:34N 47°34' W 122°21'0 0.0
2017-Oct-15 04:15N 47°34' W 122°21'0 0.0
2017-Oct-15 02:28N 47°34' W 122°21'0 0.0
2017-Oct-15 02:01N 47°34' W 122°21'0 0.0
2017-Oct-15 01:30N 47°34' W 122°21'0 0.0
2017-Oct-15 00:20N 47°34' W 122°21'0 0.1
2017-Oct-15 00:00N 47°34' W 122°21'0 0.0
2017-Oct-14 23:29N 47°34' W 122°21'0 0.1
2017-Oct-14 23:00N 47°34' W 122°21'0 0.1
2017-Oct-14 22:31N 47°34' W 122°21'0 0.0
2017-Oct-14 22:01N 47°34' W 122°21'0 0.0
2017-Oct-14 21:31N 47°34' W 122°21'0 0.0
2017-Oct-14 21:01N 47°34' W 122°21'0 0.0
2017-Oct-14 20:31N 47°34' W 122°21'0 0.0
2017-Oct-14 20:01N 47°34' W 122°21'0 0.0
2017-Oct-14 19:31N 47°34' W 122°21'0 0.0
2017-Oct-14 18:59N 47°34' W 122°21'0 0.0
2017-Oct-14 18:30N 47°34' W 122°21'0 0.0
2017-Oct-14 18:00N 47°34' W 122°21'0 0.0
2017-Oct-14 17:30N 47°34' W 122°21'0 0.0
2017-Oct-14 17:00N 47°34' W 122°21'0 0.0
2017-Oct-14 16:22N 47°34' W 122°21'0 0.0
2017-Oct-14 16:00N 47°34' W 122°21'0 0.1
2017-Oct-14 15:29N 47°34' W 122°21'0 0.1
2017-Oct-14 14:50N 47°34' W 122°21'0 0.1
2017-Oct-14 14:24N 47°34' W 122°21'0 0.1
2017-Oct-14 13:50N 47°34' W 122°21'0 0.1
2017-Oct-14 13:31N 47°34' W 122°21'0 0.4
2017-Oct-14 13:00N 47°35' W 122°22'1 3.0
2017-Oct-14 12:31N 47°36' W 122°23'1 3.0
2017-Oct-14 12:01N 47°37' W 122°24'2 3.9
2017-Oct-14 11:31N 47°38' W 122°27'2 3.7
2017-Oct-14 11:01N 47°39' W 122°28'2 4.4
2017-Oct-14 10:31N 47°41' W 122°28'2 4.6
2017-Oct-14 10:01N 47°44' W 122°28'2 4.9
2017-Oct-14 09:31N 47°46' W 122°27'2 4.3
2017-Oct-14 09:01N 47°48' W 122°28'2 4.4
2017-Oct-14 08:31N 47°50' W 122°28'2 4.6
2017-Oct-14 08:00N 47°53' W 122°29'2 4.7
2017-Oct-14 07:31N 47°55' W 122°30'3 5.1
2017-Oct-14 07:00N 47°57' W 122°33'3 5.7
2017-Oct-14 06:24N 47°59' W 122°37'29 7.5
2017-Oct-14 02:35N 48°27' W 122°45'1 9.6
2017-Oct-14 02:30N 48°28' W 122°45'5 9.9
2017-Oct-14 02:00N 48°33' W 122°45'510.0
2017-Oct-14 01:31N 48°38' W 122°44'6 9.2
2017-Oct-14 00:54N 48°43' W 122°46'17 8.6
2017-Oct-13 22:55N 48°53' W 123°08'5 8.4
2017-Oct-13 22:21N 48°56' W 123°13'3 8.0
2017-Oct-13 21:58N 48°58' W 123°16'4 8.1
2017-Oct-13 21:29N 49°01' W 123°20'4 7.3
2017-Oct-13 21:01N 49°04' W 123°22'4 8.1
2017-Oct-13 20:29N 49°08' W 123°19'4 7.4
2017-Oct-13 20:00N 49°12' W 123°18'1 2.0
2017-Oct-13 19:30N 49°13' W 123°18'1 2.2
2017-Oct-13 19:00N 49°14' W 123°18'1 1.4
2017-Oct-13 18:31N 49°14' W 123°18'2 3.6
2017-Oct-13 18:01N 49°13' W 123°18'2 3.0
2017-Oct-13 17:30N 49°11' W 123°19'4 6.8
2017-Oct-13 16:59N 49°08' W 123°20'3 6.2
2017-Oct-13 16:31N 49°05' W 123°20'3 6.5
2017-Oct-13 16:00N 49°02' W 123°17'3 6.9
2017-Oct-13 15:30N 49°00' W 123°13'3 5.9
2017-Oct-13 15:00N 48°58' W 123°09'3 5.7
2017-Oct-13 14:30N 48°56' W 123°06'3 6.2
2017-Oct-13 13:57N 48°54' W 123°03'3 5.8
2017-Oct-13 13:30N 48°52' W 122°60'14 5.8
2017-Oct-13 11:08N 48°43' W 122°44'1 5.2
2017-Oct-13 10:59N 48°42' W 122°43'2 4.8
2017-Oct-13 10:31N 48°40' W 122°42'2 4.9
2017-Oct-13 10:00N 48°38' W 122°44'2 4.2
2017-Oct-13 09:30N 48°36' W 122°45'2 3.8
2017-Oct-13 09:00N 48°34' W 122°45'2 4.5
2017-Oct-13 08:31N 48°32' W 122°45'3 4.9
2017-Oct-13 08:00N 48°29' W 122°44'30 5.7
2017-Oct-13 02:45N 47°60' W 122°36'2 7.0
2017-Oct-13 02:28N 47°58' W 122°34'3 6.9
2017-Oct-13 02:01N 47°56' W 122°30'4 7.1
2017-Oct-13 01:31N 47°53' W 122°28'4 7.4
2017-Oct-13 01:00N 47°50' W 122°27'4 7.4
2017-Oct-13 00:31N 47°46' W 122°25'4 7.7
2017-Oct-13 00:00N 47°42' W 122°27'4 7.6
2017-Oct-12 23:31N 47°38' W 122°27'4 7.1
2017-Oct-12 23:00N 47°36' W 122°22'2 3.5
2017-Oct-12 22:30N 47°34' W 122°21'1 1.1
2017-Oct-12 21:59N 47°34' W 122°21'0 1.0
2017-Oct-12 21:30N 47°34' W 122°21'1 1.8
2017-Oct-12 21:01N 47°35' W 122°22'1 2.4
2017-Oct-12 20:30N 47°34' W 122°21'1 2.2
2017-Oct-12 20:00N 47°33' W 122°20'1 2.9
2017-Oct-12 19:30N 47°34' W 122°21'0 0.0
2017-Oct-12 19:00N 47°34' W 122°21'0 0.0
2017-Oct-12 18:31N 47°34' W 122°21'0 0.0
2017-Oct-12 18:01N 47°34' W 122°21'0 0.1
2017-Oct-12 17:30N 47°34' W 122°21'0 0.1
2017-Oct-12 17:00N 47°34' W 122°21'0 0.1
2017-Oct-12 16:30N 47°34' W 122°21'0 0.0
2017-Oct-12 16:00N 47°34' W 122°21'0 0.0
2017-Oct-12 15:30N 47°34' W 122°21'0 0.1
2017-Oct-12 15:00N 47°34' W 122°21'0 0.0
2017-Oct-12 14:30N 47°34' W 122°21'0 0.1
2017-Oct-12 14:00N 47°34' W 122°21'0 0.0
2017-Oct-12 13:30N 47°34' W 122°21'0 0.1
2017-Oct-12 13:00N 47°34' W 122°21'0 0.1
2017-Oct-12 12:30N 47°34' W 122°21'0 0.0
2017-Oct-12 12:00N 47°34' W 122°21'0 0.0
2017-Oct-12 11:30N 47°34' W 122°21'0 0.1
2017-Oct-12 11:00N 47°34' W 122°21'0 0.1
2017-Oct-12 10:30N 47°34' W 122°21'0 0.1
2017-Oct-12 10:00N 47°34' W 122°21'0 0.1
2017-Oct-12 09:29N 47°34' W 122°21'0 0.0
2017-Oct-12 09:01N 47°34' W 122°21'0 0.1
2017-Oct-12 08:31N 47°34' W 122°21'0 0.0
2017-Oct-12 08:01N 47°34' W 122°21'0 0.0
2017-Oct-12 07:31N 47°34' W 122°21'0 0.1
2017-Oct-12 07:00N 47°34' W 122°21'0 0.0
2017-Oct-12 06:30N 47°34' W 122°21'0 0.0
2017-Oct-12 06:01N 47°34' W 122°21'0 0.0
2017-Oct-12 05:31N 47°34' W 122°21'0 0.1
2017-Oct-12 05:01N 47°34' W 122°21'0 0.1
2017-Oct-12 04:30N 47°34' W 122°21'0 0.0
2017-Oct-12 04:00N 47°34' W 122°21'0 0.1
2017-Oct-12 03:30N 47°34' W 122°21'0 0.1
2017-Oct-12 02:59N 47°34' W 122°21'0 0.0
2017-Oct-12 02:30N 47°34' W 122°21'0 0.0
2017-Oct-12 02:00N 47°34' W 122°21'0 0.0
2017-Oct-12 01:29N 47°34' W 122°21'0 0.0
2017-Oct-12 01:00N 47°34' W 122°21'0 0.0
2017-Oct-12 00:30N 47°34' W 122°21'0 0.0
2017-Oct-12 00:00N 47°34' W 122°21'0 0.0
2017-Oct-11 23:30N 47°34' W 122°21'0 0.1
2017-Oct-11 23:00N 47°34' W 122°21'0 0.0
2017-Oct-11 22:31N 47°34' W 122°21'0 0.0
2017-Oct-11 22:01N 47°34' W 122°21'0 0.1
2017-Oct-11 21:30N 47°34' W 122°21'0 0.0
2017-Oct-11 21:00N 47°34' W 122°21'0 0.0
2017-Oct-11 20:30N 47°34' W 122°21'0 0.0
2017-Oct-11 20:00N 47°34' W 122°21'0 0.0
2017-Oct-11 19:30N 47°34' W 122°21'0 0.0
2017-Oct-11 19:00N 47°34' W 122°21'0 0.0
2017-Oct-11 18:30N 47°34' W 122°21'0 0.0
2017-Oct-11 18:00N 47°34' W 122°21'0 0.0
2017-Oct-11 17:30N 47°34' W 122°21'0 0.0
2017-Oct-11 17:00N 47°34' W 122°21'0 0.0
2017-Oct-10 23:59N 47°34' W 122°21'0 0.0
2017-Oct-10 23:30N 47°34' W 122°21'0 0.0
2017-Oct-10 23:00N 47°34' W 122°21'0 0.1
2017-Oct-10 22:30N 47°34' W 122°21'0 0.1
2017-Oct-10 22:00N 47°34' W 122°21'0 0.1
2017-Oct-10 21:30N 47°34' W 122°21'0 0.1
2017-Oct-10 21:00N 47°34' W 122°21'0 0.0
2017-Oct-10 20:30N 47°34' W 122°21'0 0.0
2017-Oct-10 20:00N 47°34' W 122°21'0 0.0
2017-Oct-10 19:30N 47°34' W 122°21'0 0.1
2017-Oct-10 19:00N 47°34' W 122°21'0 0.1
2017-Oct-10 18:30N 47°34' W 122°21'0 0.0
2017-Oct-10 18:00N 47°34' W 122°21'0 0.0
2017-Oct-10 17:30N 47°34' W 122°21'0 0.0
2017-Oct-10 17:00N 47°34' W 122°21'0 0.0
2017-Oct-10 16:30N 47°34' W 122°21'0 0.0
2017-Oct-10 16:00N 47°34' W 122°21'0 0.0
2017-Oct-10 15:30N 47°34' W 122°21'0 0.0
2017-Oct-10 15:00N 47°34' W 122°21'0 0.0
2017-Oct-10 14:00N 47°34' W 122°21'0 0.0
2017-Oct-10 13:30N 47°34' W 122°21'0 0.0
2017-Oct-10 13:00N 47°34' W 122°21'0 0.0
2017-Oct-10 12:30N 47°34' W 122°21'0 0.0
2017-Oct-10 12:00N 47°34' W 122°21'0 0.0
2017-Oct-10 11:30N 47°34' W 122°21'0 0.0
2017-Oct-10 11:00N 47°34' W 122°21'0 0.0
2017-Oct-10 10:30N 47°34' W 122°21'0 0.0
2017-Oct-10 10:00N 47°34' W 122°21'0 0.0
2017-Oct-10 09:30N 47°34' W 122°21'0 0.0
2017-Oct-10 09:00N 47°34' W 122°21'0 0.0
2017-Oct-10 08:30N 47°34' W 122°21'0 0.0
2017-Oct-10 08:00N 47°34' W 122°21'0 0.0
2017-Oct-10 07:30N 47°34' W 122°21'0 0.0
2017-Oct-10 07:00N 47°34' W 122°21'0 0.0
2017-Oct-10 06:30N 47°34' W 122°21'0 0.0
2017-Oct-10 06:00N 47°34' W 122°21'0 0.0
2017-Oct-10 05:30N 47°34' W 122°21'0 0.0
2017-Oct-10 04:59N 47°34' W 122°21'0 0.0
2017-Oct-10 04:30N 47°34' W 122°21'0 0.1
2017-Oct-10 04:00N 47°34' W 122°21'0 0.1
2017-Oct-10 03:30N 47°34' W 122°21'0 0.0
2017-Oct-10 03:00N 47°34' W 122°21'0 0.0
2017-Oct-10 02:30N 47°34' W 122°21'0 0.0
2017-Oct-10 02:00N 47°34' W 122°21'0 0.0
2017-Oct-10 01:30N 47°34' W 122°21'0 0.0
2017-Oct-10 01:00N 47°34' W 122°21'0 0.0
2017-Oct-10 00:30N 47°34' W 122°21'0 0.1
2017-Oct-10 00:00N 47°34' W 122°21'0 0.1
2017-Oct-09 23:30N 47°34' W 122°21'0 0.0
2017-Oct-09 23:00N 47°34' W 122°21'0 0.1
2017-Oct-09 22:30N 47°34' W 122°21'0 0.1
2017-Oct-09 22:00N 47°34' W 122°21'0 0.0
2017-Oct-09 21:29N 47°34' W 122°21'0 0.0
2017-Oct-09 21:00N 47°34' W 122°21'0 0.0
2017-Oct-09 20:30N 47°34' W 122°21'0 0.1
2017-Oct-09 20:00N 47°34' W 122°21'0 0.1
2017-Oct-09 19:30N 47°34' W 122°21'0 0.1
2017-Oct-09 18:59N 47°34' W 122°21'0 0.1
2017-Oct-09 18:30N 47°34' W 122°21'0 0.0
2017-Oct-09 14:19N 47°34' W 122°21'0 0.1
2017-Oct-09 14:00N 47°34' W 122°21'0 0.0
2017-Oct-09 13:30N 47°34' W 122°21'0 0.0
2017-Oct-09 13:00N 47°34' W 122°21'0 0.1
2017-Oct-09 12:30N 47°34' W 122°21'0 0.1
2017-Oct-09 12:00N 47°34' W 122°21'0 0.1
2017-Oct-09 11:30N 47°34' W 122°21'0 0.1
2017-Oct-09 11:00N 47°34' W 122°21'0 0.0
2017-Oct-09 10:30N 47°34' W 122°21'0 0.1
2017-Oct-09 10:00N 47°34' W 122°21'0 0.1
2017-Oct-09 09:31N 47°34' W 122°21'0 0.1
2017-Oct-09 09:00N 47°34' W 122°21'0 0.0
2017-Oct-09 08:30N 47°34' W 122°21'0 0.0
2017-Oct-09 08:00N 47°34' W 122°21'0 0.0
2017-Oct-09 07:30N 47°34' W 122°21'0 0.0
2017-Oct-09 07:00N 47°34' W 122°21'0 0.1
2017-Oct-09 06:30N 47°34' W 122°21'0 0.1
2017-Oct-09 06:00N 47°34' W 122°21'0 0.0
2017-Oct-09 05:30N 47°34' W 122°21'0 0.0
2017-Oct-09 05:00N 47°34' W 122°21'0 0.0
2017-Oct-09 04:29N 47°34' W 122°21'0 0.1
2017-Oct-09 04:00N 47°34' W 122°21'0 0.1
2017-Oct-09 03:30N 47°34' W 122°21'0 0.0
2017-Oct-09 03:00N 47°34' W 122°21'0 0.0
2017-Oct-09 02:30N 47°34' W 122°21'0 0.0
2017-Oct-09 02:00N 47°34' W 122°21'0 0.0
2017-Oct-09 01:30N 47°34' W 122°21'0 0.1
2017-Oct-09 01:00N 47°34' W 122°21'0 0.0
2017-Oct-09 00:30N 47°34' W 122°21'0 0.1
2017-Oct-09 00:00N 47°34' W 122°21'0 0.1
2017-Oct-08 23:30N 47°34' W 122°21'0 0.1
2017-Oct-08 23:00N 47°34' W 122°21'0 0.1
2017-Oct-08 22:30N 47°34' W 122°21'0 0.0
2017-Oct-08 22:00N 47°34' W 122°21'0 0.1
2017-Oct-08 21:30N 47°34' W 122°21'0 0.0
2017-Oct-08 21:00N 47°34' W 122°21'0 0.0
2017-Oct-08 20:30N 47°34' W 122°21'  
Track history (hours):
 
Tides and Currents Weather Stations Pressure Air Temp Water Temp Dewpoint Dewpoint Depression Visibility Wind Speed Wind Dir Waves Ship Positions

Island Viking

Owner: Island Tug and Barge, Seattle, WA. More information available from US FCC via Universal Licensing System and Coast Guard Vessel Documentation Center.

Last reported at 2017-Oct-18 20:00 UTC. Time now 2017-Oct-18 20:20 UTC.
Position N 47°34' W 122°21'.

Length 35 m; draft 4 m.

Type: Towing. MMSI: 368637000.

Date/timePositionNaut miles runAvg speedWind from/ knotsBaromVisibWave heightAir tempDewpointWater temp
2017-Oct-18 20:00N 47°34' W 122°21'0 0.0
2017-Oct-18 19:30N 47°34' W 122°21'0 0.1
2017-Oct-18 19:00N 47°34' W 122°21'0 0.0
2017-Oct-18 18:29N 47°34' W 122°21'0 0.1
2017-Oct-18 18:00N 47°34' W 122°21'0 0.0
2017-Oct-18 17:26N 47°34' W 122°21'0 0.0
2017-Oct-18 16:45N 47°34' W 122°21'0 0.1
2017-Oct-18 16:11N 47°34' W 122°21'0 0.2
2017-Oct-18 15:57N 47°34' W 122°21'0 0.0
2017-Oct-18 15:29N 47°34' W 122°21'0 0.0
2017-Oct-18 14:00N 47°34' W 122°21'0 0.0
2017-Oct-18 13:30N 47°34' W 122°21'0 0.1
2017-Oct-18 13:00N 47°34' W 122°21'0 0.1
2017-Oct-18 12:30N 47°34' W 122°21'0 0.0
2017-Oct-18 12:00N 47°34' W 122°21'0 0.0
2017-Oct-18 11:30N 47°34' W 122°21'0 0.0
2017-Oct-18 11:00N 47°34' W 122°21'0 0.1
2017-Oct-18 10:30N 47°34' W 122°21'0 0.0
2017-Oct-18 10:00N 47°34' W 122°21'0 0.0
2017-Oct-18 09:30N 47°34' W 122°21'0 0.1
2017-Oct-18 09:00N 47°34' W 122°21'0 0.1
2017-Oct-18 08:30N 47°34' W 122°21'0 0.1
2017-Oct-18 08:00N 47°34' W 122°21'0 0.0
2017-Oct-18 07:30N 47°34' W 122°21'1 1.4
2017-Oct-18 07:00N 47°34' W 122°21'1 2.5
2017-Oct-18 06:30N 47°35' W 122°22'2 4.8
2017-Oct-18 06:00N 47°35' W 122°25'3 6.5
2017-Oct-18 05:30N 47°33' W 122°28'4 8.1
2017-Oct-18 05:00N 47°29' W 122°30'4 8.0
2017-Oct-18 04:30N 47°25' W 122°32'4 8.0
2017-Oct-18 04:00N 47°21' W 122°33'5 9.5
2017-Oct-18 03:30N 47°16' W 122°33'16 6.2
2017-Oct-18 00:55N 47°10' W 122°55'2 5.1
2017-Oct-18 00:30N 47°12' W 122°56'2 4.4
2017-Oct-18 00:00N 47°12' W 122°59'2 3.8
2017-Oct-17 23:30N 47°12' W 123°02'2 3.4
2017-Oct-17 23:00N 47°13' W 123°05'1 0.9
2017-Oct-17 22:21N 47°13' W 123°05'0 0.0
2017-Oct-17 21:58N 47°13' W 123°05'0 0.0
2017-Oct-17 21:30N 47°13' W 123°05'0 0.0
2017-Oct-17 21:00N 47°13' W 123°05'0 0.0
2017-Oct-17 20:28N 47°13' W 123°05'0 0.0
2017-Oct-17 19:59N 47°13' W 123°05'0 0.0
2017-Oct-17 19:30N 47°13' W 123°05'0 0.0
2017-Oct-17 19:00N 47°13' W 123°05'0 0.0
2017-Oct-17 18:30N 47°13' W 123°05'0 0.0
2017-Oct-17 18:00N 47°13' W 123°05'0 0.1
2017-Oct-17 17:29N 47°13' W 123°05'0 0.0
2017-Oct-17 17:00N 47°13' W 123°05'0 0.0
2017-Oct-17 16:30N 47°13' W 123°05'0 0.0
2017-Oct-17 16:00N 47°13' W 123°05'0 0.0
2017-Oct-17 15:27N 47°13' W 123°05'0 0.1
2017-Oct-17 15:00N 47°13' W 123°05'0 0.0
2017-Oct-17 14:30N 47°13' W 123°05'0 0.0
2017-Oct-17 13:59N 47°13' W 123°05'0 0.0
2017-Oct-17 13:24N 47°13' W 123°05'0 0.2
2017-Oct-17 12:58N 47°13' W 123°05'2 3.7
2017-Oct-17 12:30N 47°12' W 123°02'3 5.5
2017-Oct-17 12:00N 47°12' W 122°58'2 3.6
2017-Oct-17 11:29N 47°12' W 122°56'1 2.7
2017-Oct-17 11:00N 47°11' W 122°55'14 4.3
2017-Oct-17 07:45N 47°14' W 122°35'310.4
2017-Oct-17 07:29N 47°16' W 122°33'5 9.4
2017-Oct-17 07:00N 47°21' W 122°33'3 7.0
2017-Oct-17 06:30N 47°24' W 122°32'4 7.2
2017-Oct-17 06:00N 47°28' W 122°31'3 6.7
2017-Oct-17 05:30N 47°31' W 122°29'4 7.2
2017-Oct-17 05:00N 47°34' W 122°27'3 6.9
2017-Oct-17 04:30N 47°36' W 122°23'2 3.7
2017-Oct-17 04:00N 47°34' W 122°21'0 0.0
2017-Oct-17 03:30N 47°34' W 122°21'0 0.0
2017-Oct-17 03:00N 47°34' W 122°21'1 1.5
2017-Oct-17 02:30N 47°34' W 122°21'1 1.2
2017-Oct-17 02:00N 47°34' W 122°21'2 4.2
2017-Oct-17 01:30N 47°36' W 122°23'3 6.3
2017-Oct-17 01:01N 47°34' W 122°26'3 6.7
2017-Oct-17 00:31N 47°31' W 122°29'3 6.8
2017-Oct-17 00:01N 47°28' W 122°31'3 6.7
2017-Oct-16 23:30N 47°24' W 122°32'3 6.2
2017-Oct-16 23:01N 47°21' W 122°33'4 5.6
2017-Oct-16 22:23N 47°18' W 122°32'1 3.5
2017-Oct-16 22:01N 47°17' W 122°33'1 2.7
2017-Oct-16 21:28N 47°15' W 122°34'1 1.7
2017-Oct-16 20:59N 47°15' W 122°34'1 2.3
2017-Oct-16 20:30N 47°14' W 122°35'1 1.7
2017-Oct-16 19:58N 47°13' W 122°35'3 4.4
2017-Oct-16 19:10N 47°10' W 122°38'2 5.9
2017-Oct-16 18:50N 47°08' W 122°39'0 0.5
2017-Oct-16 18:31N 47°08' W 122°39'0 0.0
2017-Oct-16 17:52N 47°08' W 122°39'0 0.0
2017-Oct-16 17:28N 47°08' W 122°39'0 0.0
2017-Oct-16 16:59N 47°08' W 122°39'5 0.7
2017-Oct-16 10:07N 47°13' W 122°36'1 7.5
2017-Oct-16 09:58N 47°14' W 122°35'4 7.8
2017-Oct-16 09:31N 47°17' W 122°33'4 7.8
2017-Oct-16 09:00N 47°21' W 122°32'3 7.0
2017-Oct-16 08:31N 47°24' W 122°32'4 7.1
2017-Oct-16 08:01N 47°28' W 122°31'3 6.9
2017-Oct-16 07:30N 47°31' W 122°29'4 7.5
2017-Oct-16 07:01N 47°34' W 122°26'3 6.0
2017-Oct-16 06:31N 47°36' W 122°22'2 4.3
2017-Oct-16 06:00N 47°34' W 122°21'0 0.6
2017-Oct-16 05:31N 47°34' W 122°21'0 0.5
2017-Oct-16 04:58N 47°34' W 122°21'0 0.2
2017-Oct-16 04:20N 47°34' W 122°21'0 0.1
2017-Oct-16 03:59N 47°34' W 122°21'0 0.0
2017-Oct-16 03:22N 47°34' W 122°21'0 0.0
2017-Oct-16 03:00N 47°34' W 122°21'0 0.0
2017-Oct-16 02:25N 47°34' W 122°21'0 0.0
2017-Oct-16 02:00N 47°34' W 122°21'1 1.1
2017-Oct-16 01:30N 47°34' W 122°21'1 1.4
2017-Oct-16 01:00N 47°35' W 122°22'2 4.3
2017-Oct-16 00:31N 47°36' W 122°24'3 6.1
2017-Oct-16 00:00N 47°33' W 122°27'3 6.3
2017-Oct-15 23:30N 47°30' W 122°29'3 6.3
2017-Oct-15 23:01N 47°28' W 122°31'10 5.5
2017-Oct-15 21:09N 47°17' W 122°32'0 2.7
2017-Oct-15 21:01N 47°17' W 122°32'1 2.5
2017-Oct-15 20:31N 47°16' W 122°33'2 2.3
2017-Oct-15 19:52N 47°15' W 122°34'1 2.6
2017-Oct-15 19:30N 47°14' W 122°35'5 4.6
2017-Oct-15 18:29N 47°10' W 122°39'2 2.6
2017-Oct-15 17:50N 47°08' W 122°39'0 0.0
2017-Oct-15 17:28N 47°08' W 122°39'0 0.0
2017-Oct-15 15:33N 47°08' W 122°39'0 0.0
2017-Oct-15 15:11N 47°08' W 122°39'0 0.1
2017-Oct-15 14:55N 47°08' W 122°39'8 4.0
2017-Oct-15 12:50N 47°16' W 122°34'1 2.9
2017-Oct-15 12:28N 47°16' W 122°33'1 1.8
2017-Oct-15 12:01N 47°17' W 122°32'2 2.9
2017-Oct-15 11:28N 47°19' W 122°33'1 2.8
2017-Oct-15 11:01N 47°20' W 122°33'2 4.1
2017-Oct-15 10:30N 47°22' W 122°32'2 3.7
2017-Oct-15 10:01N 47°24' W 122°32'2 3.4
2017-Oct-15 09:30N 47°25' W 122°32'2 3.7
2017-Oct-15 09:01N 47°27' W 122°31'2 3.8
2017-Oct-15 08:30N 47°29' W 122°30'2 3.6
2017-Oct-15 08:01N 47°31' W 122°29'2 4.0
2017-Oct-15 07:31N 47°32' W 122°28'2 4.3
2017-Oct-15 07:01N 47°34' W 122°26'2 4.9
2017-Oct-15 06:30N 47°36' W 122°24'2 4.1
2017-Oct-15 06:01N 47°35' W 122°22'0 0.1
2017-Oct-15 04:34N 47°34' W 122°21'0 0.0
2017-Oct-15 04:15N 47°34' W 122°21'0 0.0
2017-Oct-15 02:28N 47°34' W 122°21'0 0.0
2017-Oct-15 02:01N 47°34' W 122°21'0 0.0
2017-Oct-15 01:30N 47°34' W 122°21'0 0.0
2017-Oct-15 00:20N 47°34' W 122°21'0 0.1
2017-Oct-15 00:00N 47°34' W 122°21'0 0.0
2017-Oct-14 23:29N 47°34' W 122°21'0 0.1
2017-Oct-14 23:00N 47°34' W 122°21'0 0.1
2017-Oct-14 22:31N 47°34' W 122°21'0 0.0
2017-Oct-14 22:01N 47°34' W 122°21'0 0.0
2017-Oct-14 21:31N 47°34' W 122°21'0 0.0
2017-Oct-14 21:01N 47°34' W 122°21'0 0.0
2017-Oct-14 20:31N 47°34' W 122°21'0 0.0
2017-Oct-14 20:01N 47°34' W 122°21'0 0.0
2017-Oct-14 19:31N 47°34' W 122°21'0 0.0
2017-Oct-14 18:59N 47°34' W 122°21'0 0.0
2017-Oct-14 18:30N 47°34' W 122°21'0 0.0
2017-Oct-14 18:00N 47°34' W 122°21'0 0.0
2017-Oct-14 17:30N 47°34' W 122°21'0 0.0
2017-Oct-14 17:00N 47°34' W 122°21'0 0.0
2017-Oct-14 16:22N 47°34' W 122°21'0 0.0
2017-Oct-14 16:00N 47°34' W 122°21'0 0.1
2017-Oct-14 15:29N 47°34' W 122°21'0 0.1
2017-Oct-14 14:50N 47°34' W 122°21'0 0.1
2017-Oct-14 14:24N 47°34' W 122°21'0 0.1
2017-Oct-14 13:50N 47°34' W 122°21'0 0.1
2017-Oct-14 13:31N 47°34' W 122°21'0 0.4
2017-Oct-14 13:00N 47°35' W 122°22'1 3.0
2017-Oct-14 12:31N 47°36' W 122°23'1 3.0
2017-Oct-14 12:01N 47°37' W 122°24'2 3.9
2017-Oct-14 11:31N 47°38' W 122°27'2 3.7
2017-Oct-14 11:01N 47°39' W 122°28'2 4.4
2017-Oct-14 10:31N 47°41' W 122°28'2 4.6
2017-Oct-14 10:01N 47°44' W 122°28'2 4.9
2017-Oct-14 09:31N 47°46' W 122°27'2 4.3
2017-Oct-14 09:01N 47°48' W 122°28'2 4.4
2017-Oct-14 08:31N 47°50' W 122°28'2 4.6
2017-Oct-14 08:00N 47°53' W 122°29'2 4.7
2017-Oct-14 07:31N 47°55' W 122°30'3 5.1
2017-Oct-14 07:00N 47°57' W 122°33'3 5.7
2017-Oct-14 06:24N 47°59' W 122°37'29 7.5
2017-Oct-14 02:35N 48°27' W 122°45'1 9.6
2017-Oct-14 02:30N 48°28' W 122°45'5 9.9
2017-Oct-14 02:00N 48°33' W 122°45'510.0
2017-Oct-14 01:31N 48°38' W 122°44'6 9.2
2017-Oct-14 00:54N 48°43' W 122°46'17 8.6
2017-Oct-13 22:55N 48°53' W 123°08'5 8.4
2017-Oct-13 22:21N 48°56' W 123°13'3 8.0
2017-Oct-13 21:58N 48°58' W 123°16'4 8.1
2017-Oct-13 21:29N 49°01' W 123°20'4 7.3
2017-Oct-13 21:01N 49°04' W 123°22'4 8.1
2017-Oct-13 20:29N 49°08' W 123°19'4 7.4
2017-Oct-13 20:00N 49°12' W 123°18'1 2.0
2017-Oct-13 19:30N 49°13' W 123°18'1 2.2
2017-Oct-13 19:00N 49°14' W 123°18'1 1.4
2017-Oct-13 18:31N 49°14' W 123°18'2 3.6
2017-Oct-13 18:01N 49°13' W 123°18'2 3.0
2017-Oct-13 17:30N 49°11' W 123°19'4 6.8
2017-Oct-13 16:59N 49°08' W 123°20'3 6.2
2017-Oct-13 16:31N 49°05' W 123°20'3 6.5
2017-Oct-13 16:00N 49°02' W 123°17'3 6.9
2017-Oct-13 15:30N 49°00' W 123°13'3 5.9
2017-Oct-13 15:00N 48°58' W 123°09'3 5.7
2017-Oct-13 14:30N 48°56' W 123°06'3 6.2
2017-Oct-13 13:57N 48°54' W 123°03'3 5.8
2017-Oct-13 13:30N 48°52' W 122°60'14 5.8
2017-Oct-13 11:08N 48°43' W 122°44'1 5.2
2017-Oct-13 10:59N 48°42' W 122°43'2 4.8
2017-Oct-13 10:31N 48°40' W 122°42'2 4.9
2017-Oct-13 10:00N 48°38' W 122°44'2 4.2
2017-Oct-13 09:30N 48°36' W 122°45'2 3.8
2017-Oct-13 09:00N 48°34' W 122°45'2 4.5
2017-Oct-13 08:31N 48°32' W 122°45'3 4.9
2017-Oct-13 08:00N 48°29' W 122°44'30 5.7
2017-Oct-13 02:45N 47°60' W 122°36'2 7.0
2017-Oct-13 02:28N 47°58' W 122°34'3 6.9
2017-Oct-13 02:01N 47°56' W 122°30'4 7.1
2017-Oct-13 01:31N 47°53' W 122°28'4 7.4
2017-Oct-13 01:00N 47°50' W 122°27'4 7.4
2017-Oct-13 00:31N 47°46' W 122°25'4 7.7
2017-Oct-13 00:00N 47°42' W 122°27'4 7.6
2017-Oct-12 23:31N 47°38' W 122°27'4 7.1
2017-Oct-12 23:00N 47°36' W 122°22'2 3.5
2017-Oct-12 22:30N 47°34' W 122°21'1 1.1
2017-Oct-12 21:59N 47°34' W 122°21'0 1.0
2017-Oct-12 21:30N 47°34' W 122°21'1 1.8
2017-Oct-12 21:01N 47°35' W 122°22'1 2.4
2017-Oct-12 20:30N 47°34' W 122°21'1 2.2
2017-Oct-12 20:00N 47°33' W 122°20'1 2.9
2017-Oct-12 19:30N 47°34' W 122°21'0 0.0
2017-Oct-12 19:00N 47°34' W 122°21'0 0.0
2017-Oct-12 18:31N 47°34' W 122°21'0 0.0
2017-Oct-12 18:01N 47°34' W 122°21'0 0.1
2017-Oct-12 17:30N 47°34' W 122°21'0 0.1
2017-Oct-12 17:00N 47°34' W 122°21'0 0.1
2017-Oct-12 16:30N 47°34' W 122°21'0 0.0
2017-Oct-12 16:00N 47°34' W 122°21'0 0.0
2017-Oct-12 15:30N 47°34' W 122°21'0 0.1
2017-Oct-12 15:00N 47°34' W 122°21'0 0.0
2017-Oct-12 14:30N 47°34' W 122°21'0 0.1
2017-Oct-12 14:00N 47°34' W 122°21'0 0.0
2017-Oct-12 13:30N 47°34' W 122°21'0 0.1
2017-Oct-12 13:00N 47°34' W 122°21'0 0.1
2017-Oct-12 12:30N 47°34' W 122°21'0 0.0
2017-Oct-12 12:00N 47°34' W 122°21'0 0.0
2017-Oct-12 11:30N 47°34' W 122°21'0 0.1
2017-Oct-12 11:00N 47°34' W 122°21'0 0.1
2017-Oct-12 10:30N 47°34' W 122°21'0 0.1
2017-Oct-12 10:00N 47°34' W 122°21'0 0.1
2017-Oct-12 09:29N 47°34' W 122°21'0 0.0
2017-Oct-12 09:01N 47°34' W 122°21'0 0.1
2017-Oct-12 08:31N 47°34' W 122°21'0 0.0
2017-Oct-12 08:01N 47°34' W 122°21'0 0.0
2017-Oct-12 07:31N 47°34' W 122°21'0 0.1
2017-Oct-12 07:00N 47°34' W 122°21'0 0.0
2017-Oct-12 06:30N 47°34' W 122°21'0 0.0
2017-Oct-12 06:01N 47°34' W 122°21'0 0.0
2017-Oct-12 05:31N 47°34' W 122°21'0 0.1
2017-Oct-12 05:01N 47°34' W 122°21'0 0.1
2017-Oct-12 04:30N 47°34' W 122°21'0 0.0
2017-Oct-12 04:00N 47°34' W 122°21'0 0.1
2017-Oct-12 03:30N 47°34' W 122°21'0 0.1
2017-Oct-12 02:59N 47°34' W 122°21'0 0.0
2017-Oct-12 02:30N 47°34' W 122°21'0 0.0
2017-Oct-12 02:00N 47°34' W 122°21'0 0.0
2017-Oct-12 01:29N 47°34' W 122°21'0 0.0
2017-Oct-12 01:00N 47°34' W 122°21'0 0.0
2017-Oct-12 00:30N 47°34' W 122°21'0 0.0
2017-Oct-12 00:00N 47°34' W 122°21'0 0.0
2017-Oct-11 23:30N 47°34' W 122°21'0 0.1
2017-Oct-11 23:00N 47°34' W 122°21'0 0.0
2017-Oct-11 22:31N 47°34' W 122°21'0 0.0
2017-Oct-11 22:01N 47°34' W 122°21'0 0.1
2017-Oct-11 21:30N 47°34' W 122°21'0 0.0
2017-Oct-11 21:00N 47°34' W 122°21'0 0.0
2017-Oct-11 20:30N 47°34' W 122°21'0 0.0
2017-Oct-11 20:00N 47°34' W 122°21'0 0.0
2017-Oct-11 19:30N 47°34' W 122°21'0 0.0
2017-Oct-11 19:00N 47°34' W 122°21'0 0.0
2017-Oct-11 18:30N 47°34' W 122°21'0 0.0
2017-Oct-11 18:00N 47°34' W 122°21'0 0.0
2017-Oct-11 17:30N 47°34' W 122°21'0 0.0
2017-Oct-11 17:00N 47°34' W 122°21'0 0.0
2017-Oct-10 23:59N 47°34' W 122°21'0 0.0
2017-Oct-10 23:30N 47°34' W 122°21'0 0.0
2017-Oct-10 23:00N 47°34' W 122°21'0 0.1
2017-Oct-10 22:30N 47°34' W 122°21'0 0.1
2017-Oct-10 22:00N 47°34' W 122°21'0 0.1
2017-Oct-10 21:30N 47°34' W 122°21'0 0.1
2017-Oct-10 21:00N 47°34' W 122°21'0 0.0
2017-Oct-10 20:30N 47°34' W 122°21'0 0.0
2017-Oct-10 20:00N 47°34' W 122°21'0 0.0
2017-Oct-10 19:30N 47°34' W 122°21'0 0.1
2017-Oct-10 19:00N 47°34' W 122°21'0 0.1
2017-Oct-10 18:30N 47°34' W 122°21'0 0.0
2017-Oct-10 18:00N 47°34' W 122°21'0 0.0
2017-Oct-10 17:30N 47°34' W 122°21'0 0.0
2017-Oct-10 17:00N 47°34' W 122°21'0 0.0
2017-Oct-10 16:30N 47°34' W 122°21'0 0.0
2017-Oct-10 16:00N 47°34' W 122°21'0 0.0
2017-Oct-10 15:30N 47°34' W 122°21'0 0.0
2017-Oct-10 15:00N 47°34' W 122°21'0 0.0
2017-Oct-10 14:00N 47°34' W 122°21'0 0.0
2017-Oct-10 13:30N 47°34' W 122°21'0 0.0
2017-Oct-10 13:00N 47°34' W 122°21'0 0.0
2017-Oct-10 12:30N 47°34' W 122°21'0 0.0
2017-Oct-10 12:00N 47°34' W 122°21'0 0.0
2017-Oct-10 11:30N 47°34' W 122°21'0 0.0
2017-Oct-10 11:00N 47°34' W 122°21'0 0.0
2017-Oct-10 10:30N 47°34' W 122°21'0 0.0
2017-Oct-10 10:00N 47°34' W 122°21'0 0.0
2017-Oct-10 09:30N 47°34' W 122°21'0 0.0
2017-Oct-10 09:00N 47°34' W 122°21'0 0.0
2017-Oct-10 08:30N 47°34' W 122°21'0 0.0
2017-Oct-10 08:00N 47°34' W 122°21'0 0.0
2017-Oct-10 07:30N 47°34' W 122°21'0 0.0
2017-Oct-10 07:00N 47°34' W 122°21'0 0.0
2017-Oct-10 06:30N 47°34' W 122°21'0 0.0
2017-Oct-10 06:00N 47°34' W 122°21'0 0.0
2017-Oct-10 05:30N 47°34' W 122°21'0 0.0
2017-Oct-10 04:59N 47°34' W 122°21'0 0.0
2017-Oct-10 04:30N 47°34' W 122°21'0 0.1
2017-Oct-10 04:00N 47°34' W 122°21'0 0.1
2017-Oct-10 03:30N 47°34' W 122°21'0 0.0
2017-Oct-10 03:00N 47°34' W 122°21'0 0.0
2017-Oct-10 02:30N 47°34' W 122°21'0 0.0
2017-Oct-10 02:00N 47°34' W 122°21'0 0.0
2017-Oct-10 01:30N 47°34' W 122°21'0 0.0
2017-Oct-10 01:00N 47°34' W 122°21'0 0.0
2017-Oct-10 00:30N 47°34' W 122°21'0 0.1
2017-Oct-10 00:00N 47°34' W 122°21'0 0.1
2017-Oct-09 23:30N 47°34' W 122°21'0 0.0
2017-Oct-09 23:00N 47°34' W 122°21'0 0.1
2017-Oct-09 22:30N 47°34' W 122°21'0 0.1
2017-Oct-09 22:00N 47°34' W 122°21'0 0.0
2017-Oct-09 21:29N 47°34' W 122°21'0 0.0
2017-Oct-09 21:00N 47°34' W 122°21'0 0.0
2017-Oct-09 20:30N 47°34' W 122°21'0 0.1
2017-Oct-09 20:00N 47°34' W 122°21'0 0.1
2017-Oct-09 19:30N 47°34' W 122°21'0 0.1
2017-Oct-09 18:59N 47°34' W 122°21'0 0.1
2017-Oct-09 18:30N 47°34' W 122°21'0 0.0
2017-Oct-09 14:19N 47°34' W 122°21'0 0.1
2017-Oct-09 14:00N 47°34' W 122°21'0 0.0
2017-Oct-09 13:30N 47°34' W 122°21'0 0.0
2017-Oct-09 13:00N 47°34' W 122°21'0 0.1
2017-Oct-09 12:30N 47°34' W 122°21'0 0.1
2017-Oct-09 12:00N 47°34' W 122°21'0 0.1
2017-Oct-09 11:30N 47°34' W 122°21'0 0.1
2017-Oct-09 11:00N 47°34' W 122°21'0 0.0
2017-Oct-09 10:30N 47°34' W 122°21'0 0.1
2017-Oct-09 10:00N 47°34' W 122°21'0 0.1
2017-Oct-09 09:31N 47°34' W 122°21'0 0.1
2017-Oct-09 09:00N 47°34' W 122°21'0 0.0
2017-Oct-09 08:30N 47°34' W 122°21'0 0.0
2017-Oct-09 08:00N 47°34' W 122°21'0 0.0
2017-Oct-09 07:30N 47°34' W 122°21'0 0.0
2017-Oct-09 07:00N 47°34' W 122°21'0 0.1
2017-Oct-09 06:30N 47°34' W 122°21'0 0.1
2017-Oct-09 06:00N 47°34' W 122°21'0 0.0
2017-Oct-09 05:30N 47°34' W 122°21'0 0.0
2017-Oct-09 05:00N 47°34' W 122°21'0 0.0
2017-Oct-09 04:29N 47°34' W 122°21'0 0.1
2017-Oct-09 04:00N 47°34' W 122°21'0 0.1
2017-Oct-09 03:30N 47°34' W 122°21'0 0.0
2017-Oct-09 03:00N 47°34' W 122°21'0 0.0
2017-Oct-09 02:30N 47°34' W 122°21'0 0.0
2017-Oct-09 02:00N 47°34' W 122°21'0 0.0
2017-Oct-09 01:30N 47°34' W 122°21'0 0.1
2017-Oct-09 01:00N 47°34' W 122°21'0 0.0
2017-Oct-09 00:30N 47°34' W 122°21'0 0.1
2017-Oct-09 00:00N 47°34' W 122°21'0 0.1
2017-Oct-08 23:30N 47°34' W 122°21'0 0.1
2017-Oct-08 23:00N 47°34' W 122°21'0 0.1
2017-Oct-08 22:30N 47°34' W 122°21'0 0.0
2017-Oct-08 22:00N 47°34' W 122°21'0 0.1
2017-Oct-08 21:30N 47°34' W 122°21'0 0.0
2017-Oct-08 21:00N 47°34' W 122°21'0 0.0
2017-Oct-08 20:30N 47°34' W 122°21'  

Dump ship's entire track history